Hybart, Alabama
Current Conditions -  °F | °C
As of 10:00 AM on Sunday 23 Nov 2014 (Local Time) from KGZH Reporting Station
Haze Haze  
Wind Chill: 71°   Ceiling: 800
Heat Index: 71°   Visibility: 5mi
Dew Point: 69°   Wind: 8mph
Humidity: 93%   Direction: 130°SE
Pressure: 29.75"   Gusts: NA
Location:  31.7088°N, 87.4003°W
Report Text: KGZH 231600Z AUTO 13007KT 5SM BR SCT004 OVC008 22/21 A2975 RMK AO2 CIG 006V010 T02170206
Loading
Personal Weather Stations






























Interactive Weather Map New forecast layout! Learn more

10-Day Weather Forecast

Advertisements
Track Severe Weather on mobile